Time;durP1;ratioP1;P1;durP2;ratioP2;P2;SDS_P1;SDS_P2;PMS_P1;PMS_P2;Temp;Humidity;BMP_temperature;BMP_pressure;BME280_temperature;BME280_humidity;BME280_pressure;Samples;Min_cycle;Max_cycle;Signal;HPM_P1;HPM_P2
2021/10/04 00:02:09;;;;;;;18.73;12.47;;;;;;;12.26;65.22;100652.07;1715812;82;21312;-78
2021/10/04 00:04:35;;;;;;;13.35;10.90;;;;;;;12.27;65.24;100656.81;1707446;83;20950;-78
2021/10/04 00:07:03;;;;;;;15.83;12.20;;;;;;;12.28;65.25;100651.19;1710582;82;20883;-78
2021/10/04 00:09:30;;;;;;;14.18;11.83;;;;;;;12.25;65.34;100650.36;1705767;83;20962;-78
2021/10/04 00:11:56;;;;;;;14.28;12.13;;;;;;;12.24;65.36;100656.44;1715723;82;20883;-78
2021/10/04 00:14:22;;;;;;;16.60;12.80;;;;;;;12.23;65.39;100658.62;1710610;82;20934;-78
2021/10/04 00:16:50;;;;;;;13.90;11.28;;;;;;;12.20;65.43;100655.23;1711869;82;20943;-78
2021/10/04 00:19:17;;;;;;;18.62;12.75;;;;;;;12.19;65.52;100649.20;1713818;82;20966;-78
2021/10/04 00:21:43;;;;;;;13.72;12.13;;;;;;;12.19;65.52;100653.09;1715798;82;21699;-78
2021/10/04 00:24:09;;;;;;;17.77;12.13;;;;;;;12.19;65.59;100645.31;1714856;82;20923;-78
2021/10/04 00:26:36;;;;;;;16.75;12.78;;;;;;;12.18;65.65;100644.91;1709101;83;20883;-78
2021/10/04 00:29:03;;;;;;;15.07;12.53;;;;;;;12.16;65.67;100645.38;1715605;83;20938;-78
2021/10/04 00:31:29;;;;;;;15.03;12.60;;;;;;;12.15;65.68;100646.27;1715735;83;20970;-78
2021/10/04 00:33:56;;;;;;;14.63;13.03;;;;;;;12.13;65.73;100651.08;1718297;83;20968;-78
2021/10/04 00:36:23;;;;;;;17.93;14.20;;;;;;;12.11;65.79;100652.41;1716152;83;20963;-78
2021/10/04 00:38:48;;;;;;;21.10;14.77;;;;;;;12.11;65.87;100658.03;1715659;82;21601;-78
2021/10/04 00:41:16;;;;;;;14.98;12.82;;;;;;;12.10;65.93;100661.06;1711893;82;20949;-78
2021/10/04 00:43:42;;;;;;;18.03;13.70;;;;;;;12.09;65.94;100662.39;1715108;82;21021;-78
2021/10/04 00:46:08;;;;;;;23.77;14.17;;;;;;;12.09;66.03;100671.02;1707431;83;20986;-78
2021/10/04 00:48:34;;;;;;;19.70;13.80;;;;;;;12.08;66.04;100668.46;1716338;82;20961;-78
2021/10/04 00:51:01;;;;;;;21.30;14.20;;;;;;;12.06;66.05;100673.68;1706318;82;21348;-78
2021/10/04 00:53:28;;;;;;;23.57;14.30;;;;;;;12.04;66.11;100678.48;1711801;83;20978;-78
2021/10/04 00:55:54;;;;;;;19.87;14.00;;;;;;;12.02;66.22;100672.48;1716667;83;20933;-78
2021/10/04 00:58:20;;;;;;;17.73;13.50;;;;;;;12.02;66.27;100679.81;1691700;83;20931;-78
2021/10/04 01:00:46;;;;;;;17.43;13.20;;;;;;;12.01;66.26;100680.70;1695265;84;21096;-78
2021/10/04 01:03:15;;;;;;;15.67;13.07;;;;;;;12.01;66.30;100679.84;1708964;83;20987;-78
2021/10/04 01:05:43;;;;;;;20.00;13.78;;;;;;;11.99;66.35;100674.69;1715540;82;20903;-78
2021/10/04 01:08:09;;;;;;;16.10;13.30;;;;;;;11.99;66.39;100682.91;1712652;82;20966;-78
2021/10/04 01:10:35;;;;;;;16.43;12.73;;;;;;;11.98;66.50;100682.05;1705424;83;20900;-78
2021/10/04 01:13:10;;;;;;;17.02;13.60;;;;;;;11.99;66.53;100679.88;1718795;83;20919;-78
2021/10/04 01:15:36;;;;;;;17.90;14.03;;;;;;;11.97;66.51;100677.75;1708762;82;21737;-78
2021/10/04 01:18:07;;;;;;;24.40;14.93;;;;;;;11.95;66.60;100678.70;1711231;83;20942;-78
2021/10/04 01:20:34;;;;;;;20.70;13.90;;;;;;;11.92;66.62;100670.11;1712630;82;21211;-78
2021/10/04 01:23:00;;;;;;;;;;;;;;;11.92;66.68;100679.62;1721975;83;20859;-78
2021/10/04 01:25:27;;;;;;;18.85;13.72;;;;;;;11.89;67.13;100676.65;1681118;83;478262;-78
2021/10/04 01:27:54;;;;;;;20.75;14.55;;;;;;;11.86;66.82;100679.30;1679540;85;20958;-78
2021/10/04 01:30:24;;;;;;;18.45;13.95;;;;;;;11.83;66.79;100672.03;1679807;85;20933;-78
2021/10/04 01:32:53;;;;;;;18.17;14.05;;;;;;;11.82;66.89;100678.95;1686934;84;20913;-78
2021/10/04 01:35:20;;;;;;;20.20;13.15;;;;;;;11.81;66.93;100679.84;1689806;83;20942;-78
2021/10/04 01:37:46;;;;;;;20.65;13.68;;;;;;;11.81;66.94;100684.16;1679196;84;20957;-78
2021/10/04 01:40:19;;;;;;;20.72;13.83;;;;;;;11.81;67.00;100687.61;1676221;85;20995;-78
2021/10/04 01:42:46;;;;;;;18.98;14.20;;;;;;;11.81;67.03;100681.57;1667870;85;20990;-78
2021/10/04 01:45:17;;;;;;;20.85;15.28;;;;;;;11.80;67.08;100685.90;1666689;85;21406;-78
2021/10/04 01:47:50;;;;;;;16.70;14.10;;;;;;;11.79;67.17;100681.60;1661634;84;20969;-78
2021/10/04 01:50:17;;;;;;;;;;;;;;;11.80;67.17;100685.05;1668618;85;20903;-78
2021/10/04 01:52:44;;;;;;;16.85;14.35;;;;;;;11.79;67.79;100683.34;1657701;85;20585;-78
2021/10/04 01:55:16;;;;;;;22.62;14.80;;;;;;;11.80;67.33;100680.72;1659756;85;20963;-78
2021/10/04 01:57:42;;;;;;;20.50;15.37;;;;;;;11.83;67.39;100684.55;1668372;84;21088;-78
2021/10/04 02:00:13;;;;;;;18.57;15.10;;;;;;;11.84;67.38;100684.95;1668376;84;21059;-78
2021/10/04 02:02:43;;;;;;;18.25;14.95;;;;;;;11.86;67.46;100688.81;1657593;85;21149;-78
2021/10/04 02:05:11;;;;;;;16.87;14.80;;;;;;;11.85;67.48;100682.78;1656202;85;21120;-78
2021/10/04 02:07:37;;;;;;;17.80;14.73;;;;;;;11.87;67.55;100689.22;1665802;85;21573;-78
2021/10/04 02:10:08;;;;;;;19.75;15.55;;;;;;;11.90;67.59;100695.64;1663902;85;21960;-78
2021/10/04 02:12:34;;;;;;;22.75;15.68;;;;;;;11.92;67.63;100693.88;1666582;85;21062;-78
2021/10/04 02:15:02;;;;;;;18.48;15.03;;;;;;;11.95;67.69;100698.14;1667729;85;21121;-78
2021/10/04 02:17:30;;;;;;;20.72;15.58;;;;;;;11.97;67.72;100697.19;1661601;85;21085;-78
2021/10/04 02:19:57;;;;;;;21.52;15.78;;;;;;;12.00;67.75;100702.75;1667222;84;21085;-78
2021/10/04 02:22:23;;;;;;;;;;;;;;;12.02;67.77;100707.47;1662955;84;21081;-78
2021/10/04 02:24:50;;;;;;;;;;;;;;;12.04;68.29;100711.73;1626448;86;20433;-78
2021/10/04 02:27:16;;;;;;;20.10;13.43;;;;;;;12.05;68.32;100712.14;1659976;85;20410;-78
2021/10/04 02:29:42;;;;;;;24.43;15.13;;;;;;;12.06;67.87;100713.00;1661342;85;21103;-78
2021/10/04 02:32:09;;;;;;;23.32;16.67;;;;;;;12.08;67.94;100717.70;1660323;85;21436;-78
2021/10/04 02:34:35;;;;;;;20.53;14.93;;;;;;;12.08;67.97;100715.97;1659614;85;21165;-78
2021/10/04 02:37:03;;;;;;;21.68;15.10;;;;;;;12.10;68.01;100714.20;1653429;85;21739;-78
2021/10/04 02:39:29;;;;;;;19.40;16.10;;;;;;;12.11;68.03;100718.94;1660349;85;21058;-78
2021/10/04 02:41:55;;;;;;;22.43;15.57;;;;;;;12.11;68.07;100721.09;1672398;85;20992;-78
2021/10/04 02:44:21;;;;;;;21.00;16.80;;;;;;;12.11;68.13;100719.80;1674826;84;20948;-78
2021/10/04 02:46:47;;;;;;;18.80;15.63;;;;;;;12.13;68.15;100719.77;1671760;85;21144;-78
2021/10/04 02:49:13;;;;;;;23.90;16.53;;;;;;;12.13;68.23;100714.58;1673412;84;21044;-78
2021/10/04 02:51:39;;;;;;;21.30;16.07;;;;;;;12.16;68.29;100721.00;1677841;84;21165;-78
2021/10/04 02:54:05;;;;;;;19.80;15.40;;;;;;;12.17;68.33;100726.16;1679445;84;21795;-78
2021/10/04 02:56:31;;;;;;;22.60;15.83;;;;;;;12.18;68.33;100723.97;1678697;84;21090;-78
2021/10/04 02:58:57;;;;;;;21.37;16.10;;;;;;;12.22;68.40;100723.47;1682081;84;20953;-78
2021/10/04 03:01:24;;;;;;;18.57;14.73;;;;;;;12.21;68.42;100715.27;1674111;84;21524;-78
2021/10/04 03:03:50;;;;;;;17.25;14.07;;;;;;;12.21;68.45;100711.39;1649147;85;22529;-78
2021/10/04 03:06:16;;;;;;;20.57;14.23;;;;;;;12.21;68.44;100715.27;1673202;84;20909;-78
2021/10/04 03:08:42;;;;;;;18.53;14.70;;;;;;;12.20;68.46;100712.27;1652957;85;20983;-78
2021/10/04 03:11:08;;;;;;;21.50;15.10;;;;;;;12.19;68.51;100709.27;1677017;84;20901;-78
2021/10/04 03:13:35;;;;;;;19.47;15.80;;;;;;;12.18;68.54;100711.45;1680075;84;21687;-78
2021/10/04 03:16:01;;;;;;;24.10;15.53;;;;;;;12.19;68.60;100720.49;1653711;85;21705;-78
2021/10/04 03:18:27;;;;;;;21.87;15.30;;;;;;;12.20;68.66;100719.61;1675831;84;20994;-78
2021/10/04 03:20:53;;;;;;;17.70;15.28;;;;;;;12.19;68.68;100716.60;1651608;84;21045;-78
2021/10/04 03:23:20;;;;;;;20.13;16.17;;;;;;;12.20;68.74;100724.79;1676372;84;21342;-78
2021/10/04 03:25:46;;;;;;;25.95;16.17;;;;;;;12.19;68.77;100724.38;1679387;84;20962;-78
2021/10/04 03:28:12;;;;;;;24.35;16.73;;;;;;;12.20;68.82;100722.64;1674559;84;21505;-78
2021/10/04 03:30:38;;;;;;;20.23;17.07;;;;;;;12.21;68.85;100725.20;1677099;84;20993;-78
2021/10/04 03:33:05;;;;;;;22.47;17.60;;;;;;;12.21;68.89;100732.13;1674633;84;21187;-78
2021/10/04 03:35:32;;;;;;;21.65;16.05;;;;;;;12.21;68.92;100740.76;1684418;84;21113;-78
2021/10/04 03:37:58;;;;;;;18.62;16.52;;;;;;;12.22;68.95;100741.61;1653053;85;21096;-78
2021/10/04 03:40:24;;;;;;;19.07;15.97;;;;;;;12.23;69.02;100746.77;1670087;84;20969;-78
2021/10/04 03:42:50;;;;;;;24.83;17.73;;;;;;;12.24;69.06;100745.87;1669931;84;21577;-78
2021/10/04 03:45:17;;;;;;;19.40;15.68;;;;;;;12.25;69.07;100739.81;1670170;84;21136;-78
2021/10/04 03:47:45;;;;;;;21.10;16.10;;;;;;;12.26;69.09;100744.11;1679582;84;21570;-78
2021/10/04 03:50:13;;;;;;;17.55;15.45;;;;;;;12.27;69.08;100744.97;1673372;84;21086;-78
2021/10/04 03:52:40;;;;;;;20.62;15.40;;;;;;;12.28;69.12;100751.00;1679220;85;21436;-78
2021/10/04 03:55:09;;;;;;;21.37;16.57;;;;;;;12.29;69.16;100750.12;1677914;84;21286;-78
2021/10/04 03:57:37;;;;;;;23.30;15.90;;;;;;;12.29;69.19;100755.30;1677933;84;20949;-78
2021/10/04 04:00:07;;;;;;;21.10;15.35;;;;;;;12.29;69.23;100757.90;1670305;84;21416;-78
2021/10/04 04:02:33;;;;;;;23.32;16.10;;;;;;;12.28;69.25;100760.08;1672645;84;21371;-78
2021/10/04 04:04:59;;;;;;;21.07;15.73;;;;;;;12.28;69.33;100762.23;1681484;84;20909;-78
2021/10/04 04:07:25;;;;;;;18.37;16.40;;;;;;;12.27;69.34;100761.81;1678178;84;20951;-78
2021/10/04 04:09:58;;;;;;;21.60;15.00;;;;;;;12.26;69.35;100767.44;1654014;84;20937;-78
2021/10/04 04:12:24;;;;;;;20.27;15.20;;;;;;;12.24;69.42;100767.06;1648935;85;20890;-78
2021/10/04 04:14:50;;;;;;;20.60;14.93;;;;;;;12.24;69.46;100767.92;1680945;84;20979;-78
2021/10/04 04:17:17;;;;;;;;;;;;;;;12.22;69.48;100765.80;1681919;84;20941;-78
2021/10/04 04:19:43;;;;;;;18.67;15.00;;;;;;;12.22;69.83;100772.28;1675570;84;20168;-78
2021/10/04 04:22:09;;;;;;;17.13;14.37;;;;;;;12.21;69.55;100773.61;1693126;83;20985;-75
2021/10/04 04:24:36;;;;;;;26.23;15.78;;;;;;;12.19;69.63;100771.05;1685566;84;21862;-75
2021/10/04 04:27:06;;;;;;;;;;;;;;;12.19;69.63;100768.89;1679304;84;20890;-75
2021/10/04 04:29:31;;;;;;;19.05;14.35;;;;;;;12.18;70.02;100769.34;1676963;84;20140;-75
2021/10/04 04:31:57;;;;;;;19.17;16.05;;;;;;;12.16;69.70;100768.52;1691091;84;20965;-75
2021/10/04 04:34:23;;;;;;;21.30;16.37;;;;;;;12.15;69.78;100765.51;1684431;84;20922;-75
2021/10/04 04:36:49;;;;;;;23.55;17.25;;;;;;;12.16;69.79;100763.77;1686031;84;20947;-75
2021/10/04 04:39:15;;;;;;;21.07;16.10;;;;;;;12.16;69.83;100768.52;1691594;84;21647;-75
2021/10/04 04:41:43;;;;;;;22.42;16.67;;;;;;;12.15;69.80;100769.39;1680810;83;20922;-75
2021/10/04 04:44:09;;;;;;;25.00;17.27;;;;;;;12.16;69.89;100770.25;1643744;86;20976;-75
2021/10/04 04:46:35;;;;;;;19.13;16.37;;;;;;;12.16;69.93;100768.95;1656019;84;20962;-75
2021/10/04 04:49:02;;;;;;;24.17;16.73;;;;;;;12.16;69.96;100772.41;1671602;84;20945;-75
2021/10/04 04:51:28;;;;;;;20.00;16.37;;;;;;;12.16;69.98;100778.88;1660535;84;20978;-75
2021/10/04 04:53:54;;;;;;;21.97;16.60;;;;;;;12.17;70.02;100776.70;1664996;84;21220;-75
2021/10/04 04:56:20;;;;;;;21.77;16.07;;;;;;;12.18;70.05;100777.11;1642296;86;20969;-75
2021/10/04 04:58:46;;;;;;;20.20;16.47;;;;;;;12.18;70.07;100781.45;1664541;84;20953;-75
2021/10/04 05:01:12;;;;;;;23.17;16.13;;;;;;;12.19;70.13;100787.04;1664959;85;20962;-75
2021/10/04 05:03:38;;;;;;;21.97;16.43;;;;;;;12.20;70.17;100785.72;1664211;84;20972;-75
2021/10/04 05:06:04;;;;;;;22.48;16.73;;;;;;;12.21;70.18;100797.80;1698193;83;20973;-75
2021/10/04 05:08:30;;;;;;;18.70;15.70;;;;;;;12.20;70.17;100802.56;1701431;83;20886;-75
2021/10/04 05:10:56;;;;;;;25.27;16.07;;;;;;;12.21;70.21;100803.42;1708278;83;21223;-75
2021/10/04 05:13:22;;;;;;;21.45;16.25;;;;;;;12.20;70.23;100797.38;1695263;83;21044;-75
2021/10/04 05:15:48;;;;;;;18.93;15.10;;;;;;;12.21;70.26;100793.05;1703461;83;20923;-75
2021/10/04 05:18:14;;;;;;;19.93;15.47;;;;;;;12.21;70.32;100796.50;1699512;83;20870;-75
2021/10/04 05:20:40;;;;;;;21.07;15.90;;;;;;;12.20;70.33;100798.67;1698377;83;20881;-75
2021/10/04 05:23:07;;;;;;;22.77;16.17;;;;;;;12.21;70.40;100806.02;1696791;83;21303;-75
2021/10/04 05:25:33;;;;;;;17.87;15.80;;;;;;;12.23;70.43;100815.47;1696242;83;20915;-75
2021/10/04 05:28:08;;;;;;;25.00;15.90;;;;;;;12.23;70.46;100813.31;1698494;83;20913;-75
2021/10/04 05:30:34;;;;;;;24.83;16.47;;;;;;;12.24;70.48;100810.70;1699172;83;20877;-75
2021/10/04 05:33:01;;;;;;;20.10;16.17;;;;;;;12.25;70.54;100805.92;1701693;83;20902;-75
2021/10/04 05:35:27;;;;;;;;;;;;;;;12.28;70.55;100809.34;1666814;84;20981;-75
2021/10/04 05:37:53;;;;;;;25.03;15.63;;;;;;;12.31;70.94;100813.17;1673508;84;20748;-75
2021/10/04 05:40:20;;;;;;;20.27;16.43;;;;;;;12.33;70.67;100817.88;1660158;84;20945;-73
2021/10/04 05:42:46;;;;;;;21.50;16.55;;;;;;;12.39;70.73;100812.58;1686362;83;20957;-73
2021/10/04 05:45:15;;;;;;;22.85;16.27;;;;;;;12.46;70.78;100813.72;1695067;83;21538;-73
2021/10/04 05:47:43;;;;;;;23.62;16.50;;;;;;;12.55;70.82;100814.80;1653627;85;20930;-73
2021/10/04 05:50:11;;;;;;;22.95;16.95;;;;;;;12.69;70.90;100812.35;1660786;84;21400;-72
2021/10/04 05:52:37;;;;;;;21.42;16.70;;;;;;;12.89;70.99;100810.18;1693363;83;21548;-72
2021/10/04 05:55:06;;;;;;;27.10;17.93;;;;;;;13.10;71.03;100809.66;1696069;83;21359;-72
2021/10/04 05:57:32;;;;;;;18.20;16.07;;;;;;;13.32;71.05;100804.85;1706315;83;21999;-72
2021/10/04 05:59:58;;;;;;;19.43;16.57;;;;;;;13.53;71.03;100809.49;1696629;83;20913;-72
2021/10/04 06:02:24;;;;;;;18.33;15.77;;;;;;;13.71;71.00;100818.57;1702919;83;21716;-72
2021/10/04 06:04:50;;;;;;;23.00;17.23;;;;;;;13.93;71.07;100812.81;1670623;84;20894;-72
2021/10/04 06:07:16;;;;;;;21.95;17.17;;;;;;;14.14;71.05;100816.11;1668391;84;21902;-72
2021/10/04 06:09:42;;;;;;;21.37;17.07;;;;;;;14.30;70.95;100804.84;1648615;85;20895;-72
2021/10/04 06:12:09;;;;;;;19.82;16.12;;;;;;;14.38;70.89;100808.08;1674729;84;20921;-72
2021/10/04 06:14:35;;;;;;;;;;;;;;;14.41;70.87;100805.39;1669740;84;21541;-72
2021/10/04 06:17:02;;;;;;;19.83;15.80;;;;;;;14.43;70.99;100810.98;1673157;84;20763;-72
2021/10/04 06:19:28;;;;;;;;;;;;;;;14.42;70.93;100815.78;1665937;85;21062;-72
2021/10/04 06:21:56;;;;;;;17.05;14.63;;;;;;;14.41;71.05;100815.38;1665969;84;20553;-72
2021/10/04 06:24:22;;;;;;;19.10;15.43;;;;;;;14.40;70.95;100827.95;1663972;84;20891;-72
2021/10/04 06:26:48;;;;;;;20.90;15.53;;;;;;;14.40;71.01;100841.41;1697067;83;20884;-72
2021/10/04 06:29:14;;;;;;;23.70;16.03;;;;;;;14.38;71.02;100848.40;1698179;83;21600;-72
2021/10/04 06:31:40;;;;;;;22.63;16.97;;;;;;;14.35;71.01;100853.24;1696872;83;20948;-72
2021/10/04 06:34:06;;;;;;;22.77;17.00;;;;;;;14.32;71.05;100846.82;1695350;83;21509;-72
2021/10/04 06:36:32;;;;;;;25.83;17.57;;;;;;;14.33;71.08;100833.37;1696679;83;27078;-72
2021/10/04 06:38:58;;;;;;;27.17;18.37;;;;;;;14.32;71.07;100833.81;1694984;83;20894;-72
2021/10/04 06:41:24;;;;;;;20.85;17.80;;;;;;;14.33;71.11;100834.67;1707718;81;21589;-72
2021/10/04 06:43:50;;;;;;;24.07;19.17;;;;;;;14.35;71.14;100837.63;1725650;81;21419;-72
2021/10/04 06:46:16;;;;;;;25.40;19.23;;;;;;;14.39;71.17;100833.20;1724332;81;20850;-72
2021/10/04 06:48:48;;;;;;;23.87;18.45;;;;;;;14.44;71.19;100831.35;1704435;82;21736;-73
2021/10/04 06:51:14;;;;;;;25.80;18.87;;;;;;;14.48;71.21;100835.12;1723693;81;21537;-75
2021/10/04 06:53:40;;;;;;;24.13;18.60;;;;;;;14.54;71.24;100851.87;1726293;81;20934;-75
2021/10/04 06:56:09;;;;;;;25.02;18.82;;;;;;;14.59;71.27;100855.61;1725642;81;21312;-75
2021/10/04 06:58:35;;;;;;;23.93;18.73;;;;;;;14.65;71.24;100861.09;1723423;81;20870;-76
2021/10/04 07:01:02;;;;;;;22.37;18.50;;;;;;;14.71;71.23;100868.72;1721710;81;21679;-76
2021/10/04 07:03:28;;;;;;;23.87;18.42;;;;;;;14.74;71.25;100889.00;1725882;81;21006;-73
2021/10/04 07:05:55;;;;;;;20.10;16.50;;;;;;;14.83;71.28;100893.09;1727143;81;21398;-73
2021/10/04 07:08:21;;;;;;;28.25;17.95;;;;;;;14.91;71.27;100898.94;1728955;81;21442;-74
2021/10/04 07:10:48;;;;;;;21.97;17.77;;;;;;;15.01;71.27;100895.61;1723311;81;21425;-74
2021/10/04 07:13:13;;;;;;;23.97;17.83;;;;;;;15.11;71.25;100894.41;1723334;81;21406;-74
2021/10/04 07:15:40;;;;;;;23.20;18.60;;;;;;;15.21;71.26;100901.05;1724713;81;21726;-74
2021/10/04 07:18:06;;;;;;;23.60;17.90;;;;;;;15.41;71.43;100893.92;1725756;81;21422;-74
2021/10/04 07:20:32;;;;;;;18.93;15.47;;;;;;;15.68;71.41;100890.44;1707576;81;21390;-73
2021/10/04 07:22:59;;;;;;;23.42;15.98;;;;;;;15.98;71.26;100894.24;1720661;81;20921;-74
2021/10/04 07:25:26;;;;;;;21.37;15.65;;;;;;;16.26;71.29;100904.11;1723065;81;20922;-74
2021/10/04 07:27:52;;;;;;;18.35;15.28;;;;;;;16.52;71.21;100905.80;1716603;82;21492;-74
2021/10/04 07:30:19;;;;;;;22.30;15.23;;;;;;;16.66;71.09;100910.08;1723521;81;21540;-74
2021/10/04 07:32:45;;;;;;;;;;;;;;;16.82;71.14;100915.59;1724405;82;20949;-74
2021/10/04 07:35:12;;;;;;;17.30;15.13;;;;;;;16.97;70.85;100912.87;1722158;81;20097;-74
2021/10/04 07:40:12;;;;;;;21.33;16.32;;;;;;;17.36;71.09;100900.01;1852457;75;22444;-74
2021/10/04 07:42:42;;;;;;;17.98;13.88;;;;;;;17.41;70.98;100901.53;1824399;77;21872;-74
2021/10/04 07:45:09;;;;;;;16.42;14.00;;;;;;;17.52;71.07;100915.03;1804600;77;20890;-74
2021/10/04 07:47:36;;;;;;;18.52;13.80;;;;;;;17.71;71.04;100916.91;1821310;77;20917;-74
2021/10/04 07:50:04;;;;;;;;;;;;;;;17.94;70.98;100916.82;1800612;77;21461;-74
2021/10/04 07:52:30;;;;;;;14.33;12.63;;;;;;;18.10;70.64;100916.58;1823349;77;20123;-74
2021/10/04 07:54:56;;;;;;;15.37;12.80;;;;;;;18.23;70.98;100919.95;1818526;77;20885;-74
2021/10/04 07:57:22;;;;;;;19.32;13.48;;;;;;;18.33;70.93;100908.17;1824674;77;21528;-74
2021/10/04 07:59:49;;;;;;;17.30;13.35;;;;;;;18.34;70.86;100916.41;1814196;77;21493;-74
2021/10/04 08:02:15;;;;;;;22.60;13.73;;;;;;;18.40;70.95;100915.69;1804080;77;20893;-74
2021/10/04 08:04:43;;;;;;;15.65;13.65;;;;;;;18.61;70.96;100917.86;1805414;77;21719;-74
2021/10/04 08:07:09;;;;;;;14.80;13.28;;;;;;;18.93;71.00;100919.47;1795672;77;20959;-74
2021/10/04 08:09:35;;;;;;;17.85;13.50;;;;;;;19.20;70.99;100928.69;1790843;77;20889;-74
2021/10/04 08:12:04;;;;;;;16.10;13.53;;;;;;;19.28;70.76;100933.08;1798088;77;21694;-74
2021/10/04 08:14:31;;;;;;;16.52;13.75;;;;;;;19.30;70.63;100930.39;1791778;77;20880;-74
2021/10/04 08:16:57;;;;;;;;;;;;;;;19.31;70.55;100936.87;1793898;77;20967;-74
2021/10/04 08:19:23;;;;;;;;;;;;;;;19.35;70.04;100934.95;1789545;77;20104;-74
2021/10/04 08:21:50;;;;;;;13.80;11.93;;;;;;;19.38;69.78;100936.12;1799624;77;20701;-74
2021/10/04 08:24:16;;;;;;;14.73;12.05;;;;;;;19.43;70.22;100936.30;1790583;77;20845;-74
2021/10/04 08:26:42;;;;;;;15.23;13.20;;;;;;;19.45;70.11;100927.89;1758788;79;21806;-74
2021/10/04 08:29:08;;;;;;;23.80;13.27;;;;;;;19.52;70.09;100921.08;1743191;79;20961;-74
2021/10/04 08:31:41;;;;;;;15.70;13.15;;;;;;;19.54;69.95;100915.30;1690123;81;431043;-74
2021/10/04 08:34:07;;;;;;;18.87;13.45;;;;;;;19.59;69.92;100918.08;1669968;84;21517;-75
2021/10/04 08:36:34;;;;;;;15.00;13.48;;;;;;;19.60;69.66;100920.24;1651862;85;21364;-75
2021/10/04 08:39:06;;;;;;;13.83;12.43;;;;;;;19.59;69.66;100918.55;1674752;83;20941;-75
2021/10/04 08:41:34;;;;;;;13.98;12.63;;;;;;;19.63;69.62;100921.41;1636021;86;20931;-74
2021/10/04 08:44:10;;;;;;;15.38;13.32;;;;;;;19.60;69.37;100920.24;1651279;84;20941;-74
2021/10/04 08:46:41;;;;;;;17.80;13.15;;;;;;;19.54;69.25;100912.67;1668955;84;21273;-73
2021/10/04 08:49:08;;;;;;;15.78;13.38;;;;;;;19.50;69.18;100908.00;1664166;84;21433;-72
2021/10/04 08:51:36;;;;;;;13.55;12.23;;;;;;;19.49;69.13;100904.53;1637841;85;21060;-72
2021/10/04 08:54:06;;;;;;;16.73;12.85;;;;;;;19.47;69.01;100908.14;1689361;83;21080;-73
2021/10/04 08:56:34;;;;;;;77.50;17.27;;;;;;;19.45;68.86;100904.75;1644608;85;20968;-72
2021/10/04 08:59:00;;;;;;;16.97;13.48;;;;;;;19.42;68.81;100904.43;1678823;83;20937;-73
2021/10/04 09:01:27;;;;;;;14.93;13.10;;;;;;;19.45;68.76;100903.44;1681563;83;20941;-73
2021/10/04 09:04:02;;;;;;;17.07;13.55;;;;;;;19.48;68.64;100909.84;1681789;83;20922;-73
2021/10/04 09:06:40;;;;;;;19.73;13.98;;;;;;;19.51;68.59;100920.22;1647622;85;20909;-73
2021/10/04 09:09:10;;;;;;;17.25;13.60;;;;;;;19.55;68.37;100928.80;1670032;84;21002;-73
2021/10/04 09:11:48;;;;;;;15.60;13.30;;;;;;;19.54;68.30;100929.26;1681052;84;20977;-73
2021/10/04 09:14:30;;;;;;;23.02;14.15;;;;;;;19.54;68.17;100927.09;1677592;84;20906;-73
2021/10/04 09:17:11;;;;;;;17.57;13.38;;;;;;;19.54;68.18;100932.34;1672783;84;20909;-73
2021/10/04 09:19:44;;;;;;;17.42;13.90;;;;;;;19.57;68.08;100933.05;1677258;84;20942;-72
2021/10/04 09:22:19;;;;;;;17.35;13.85;;;;;;;19.58;67.90;100938.68;1643189;85;20975;-72
2021/10/04 09:25:00;;;;;;;18.00;14.15;;;;;;;19.60;67.84;100938.14;1689304;83;20882;-73
2021/10/04 09:27:33;;;;;;;16.30;14.20;;;;;;;19.64;67.75;100944.09;1663799;83;20973;-73
2021/10/04 09:30:16;;;;;;;14.47;12.95;;;;;;;19.66;67.68;100953.59;1679849;83;20881;-73
2021/10/04 09:32:46;;;;;;;16.80;14.95;;;;;;;19.68;67.54;100954.83;1668751;84;20878;-73
2021/10/04 09:35:30;;;;;;;15.72;14.13;;;;;;;19.71;67.47;100962.09;1669873;83;20936;-73
2021/10/04 09:38:08;;;;;;;16.10;14.05;;;;;;;19.74;67.34;100962.41;1634111;85;20965;-73
2021/10/04 09:40:47;;;;;;;15.53;13.13;;;;;;;19.75;67.28;100957.55;1685457;83;20894;-72
2021/10/04 09:43:27;;;;;;;21.12;13.78;;;;;;;19.77;67.20;100953.89;1690444;83;20953;-72
2021/10/04 09:46:04;;;;;;;16.25;14.20;;;;;;;19.78;67.08;100963.47;1688335;83;20973;-73
2021/10/04 09:48:31;;;;;;;18.25;14.50;;;;;;;19.78;67.06;100959.53;1692801;83;27067;-73
2021/10/04 09:51:16;;;;;;;14.60;13.20;;;;;;;19.77;66.87;100967.02;1691436;83;20902;-73
2021/10/04 09:54:03;;;;;;;15.05;13.53;;;;;;;19.78;66.88;100968.72;1693241;83;21516;-73
2021/10/04 09:56:29;;;;;;;17.02;14.43;;;;;;;19.82;66.72;100968.10;1678167;83;20897;-73
2021/10/04 09:58:55;;;;;;;16.03;13.93;;;;;;;19.81;66.62;100966.41;1689674;83;20905;-73
2021/10/04 10:01:21;;;;;;;19.23;15.10;;;;;;;19.84;66.60;100963.16;1690823;83;20937;-73
2021/10/04 10:03:55;;;;;;;17.23;13.88;;;;;;;19.87;66.47;100954.30;1667070;83;21388;-73
2021/10/04 10:06:21;;;;;;;15.35;13.72;;;;;;;19.89;66.39;100947.20;1686811;83;20885;-73
2021/10/04 10:08:48;;;;;;;16.10;14.25;;;;;;;19.92;66.33;100945.73;1701397;83;20941;-72
2021/10/04 10:11:22;;;;;;;15.65;14.05;;;;;;;19.96;66.26;100940.72;1691303;83;20912;-73
2021/10/04 10:13:48;;;;;;;19.35;14.25;;;;;;;19.99;66.21;100939.72;1691512;83;20913;-73
2021/10/04 10:16:20;;;;;;;;;;;;;;;20.02;66.11;100942.19;1700385;83;20882;-73
2021/10/04 10:19:14;;;;;;;15.53;13.53;;;;;;;20.03;65.71;100943.42;1691513;83;20134;-73
2021/10/04 10:21:41;;;;;;;14.78;13.28;;;;;;;20.07;66.01;100942.34;1684083;83;20870;-73
2021/10/04 10:24:11;;;;;;;14.80;13.20;;;;;;;20.13;65.88;100938.56;1685016;83;20984;-73
2021/10/04 10:26:45;;;;;;;17.62;13.35;;;;;;;20.14;65.77;100945.52;1688115;83;20967;-73
2021/10/04 10:29:21;;;;;;;15.93;12.82;;;;;;;20.15;65.73;100946.75;1688106;83;20993;-73
2021/10/04 10:31:56;;;;;;;15.50;13.05;;;;;;;20.17;65.68;100945.36;1687913;83;21039;-73
2021/10/04 10:34:33;;;;;;;29.23;13.18;;;;;;;20.19;65.64;100946.13;1684841;83;21052;-73
2021/10/04 10:37:22;;;;;;;14.03;12.55;;;;;;;20.24;65.59;100952.00;1688409;83;21079;-73
2021/10/04 10:39:54;;;;;;;17.27;13.32;;;;;;;20.29;65.41;100958.30;1689341;83;21135;-73
2021/10/04 10:42:28;;;;;;;16.42;13.65;;;;;;;20.29;65.41;100959.16;1678622;83;21580;-73
2021/10/04 10:45:02;;;;;;;17.05;13.32;;;;;;;20.34;65.36;100970.74;1640782;85;20968;-73
2021/10/04 10:47:42;;;;;;;17.92;13.40;;;;;;;20.37;65.31;100968.81;1670872;83;20983;-73
2021/10/04 10:50:19;;;;;;;18.30;14.18;;;;;;;20.41;65.21;100963.82;1675166;84;21051;-74
2021/10/04 10:52:57;;;;;;;15.28;13.55;;;;;;;20.42;65.04;100969.92;1673172;84;21607;-75
2021/10/04 10:55:40;;;;;;;15.75;12.30;;;;;;;20.38;64.96;100972.31;1655649;84;21138;-73
2021/10/04 10:58:14;;;;;;;17.27;13.58;;;;;;;20.42;65.00;100981.28;1673115;83;20950;-73
2021/10/04 11:01:03;;;;;;;14.90;13.35;;;;;;;20.48;64.93;100988.00;1666649;84;20893;-72
2021/10/04 11:03:29;;;;;;;15.58;13.53;;;;;;;20.55;64.85;100984.59;1640000;85;21064;-73
2021/10/04 11:06:07;;;;;;;20.72;13.35;;;;;;;20.61;64.77;100989.53;1686158;83;21072;-73
2021/10/04 11:08:47;;;;;;;15.28;13.53;;;;;;;20.61;64.63;100994.79;1637743;86;21380;-73
2021/10/04 11:11:21;;;;;;;13.30;11.93;;;;;;;20.63;64.56;101004.76;1635739;86;20939;-73
2021/10/04 11:14:06;;;;;;;17.07;12.28;;;;;;;20.65;64.49;101004.22;1624586;86;20907;-73
2021/10/04 11:16:39;;;;;;;23.32;13.80;;;;;;;20.66;64.37;100996.72;1632730;86;21006;-73
2021/10/04 11:19:07;;;;;;;18.87;12.68;;;;;;;20.68;64.42;100993.08;1634281;86;20951;-73
2021/10/04 11:21:38;;;;;;;16.30;12.80;;;;;;;20.72;64.33;100992.00;1634009;86;20976;-73
2021/10/04 11:24:13;;;;;;;13.93;12.40;;;;;;;20.72;64.24;100986.73;1636623;86;20950;-73